Detalii statie TRANSAVIA REDIU [0000197C]

Toti senzorii

Date Temperatura solului [C]Precipitatii [mm]Voltaj baterie [mV]HC Air temperature [C]HC Relative humidity [%]Punctul de roua [C]
medieminmaxsumaultimamedieminmaxmediemediemin
2017-06-25 06:00:00 19.4 19.2 19.6 0 6776 12.68 11.01 14.59 100 12.6 11
2017-06-25 07:00:00 19.4 19.4 19.7 0 6826 15.58 15.09 17.06 100 15.5 15
2017-06-25 08:00:00 19.8 19.5 20.4 0 6844 19.43 17.61 20.77 93.59 18.2 17.6
2017-06-25 09:00:00 20.6 20.2 21.1 0 6922 22.09 20.9 22.75 85.02 19.3 18.5
2017-06-25 10:00:00 21.4 21.1 21.7 0 6992 22.62 21.82 23.62 85.39 19.8 19.3
2017-06-25 11:00:00 22.2 21.8 22.8 0 7088 24.57 23.82 25.22 69.33 18.4 16
2017-06-25 12:00:00 23.1 22.7 23.7 0 7098 25.98 25.38 26.83 58.45 17 16.3
2017-06-25 13:00:00 23.8 23.5 24.2 0 7098 26.44 25.78 27.16 55.55 16.6 16.3
2017-06-25 14:00:00 24.5 24 24.9 0 7098 26.94 26.63 27.38 54.32 16.7 16.2
2017-06-25 15:00:00 25.1 25 25.3 0 7070 27.42 26.83 27.91 54.99 17.3 17
2017-06-25 16:00:00 25.3 25.3 25.4 0 7098 26.96 26.51 27.52 58.9 18 17.7
2017-06-25 17:00:00 25.2 25.2 25.4 0 7098 27.53 27.34 27.77 60.16 18.9 18.7
2017-06-25 18:00:00 25.1 25 25.3 0 7098 26.98 26.36 27.6 60.76 18.5 18.3
2017-06-25 19:00:00 25 25 25.2 0 7098 26.73 26.19 27.16 63.36 18.9 18.7
2017-06-25 20:00:00 24.8 24.7 25 0 6844 24.95 23.53 26.1 71.53 19.3 19
2017-06-25 21:00:00 24.4 24.1 24.8 0 6786 20.54 19.45 22.48 91.67 18.9 18.5
2017-06-25 22:00:00 23.8 23.6 24.2 0 6786 18.06 17.35 18.99 99.83 17.9 17.3
2017-06-25 23:00:00 23.2 23 23.5 0 6786 16.77 16.25 17.27 100 16.7 16.2
2017-06-26 00:00:00 22.8 22.6 23.1 0 6766 16.64 15.93 20.1 100 16.6 15.9
2017-06-26 01:00:00 22.3 22.2 22.6 0 6766 19.87 19.55 20.34 100 19.8 19.5
2017-06-26 02:00:00 22.1 22 22.3 0 6766 19 18.55 19.53 100 18.9 18.5
2017-06-26 03:00:00 21.8 21.7 22.1 0 6756 18.39 18.1 18.91 100 18.3 18.1
2017-06-26 04:00:00 21.6 21.5 21.7 0 6738 18.36 17.9 18.87 100 18.3 17.9
2017-06-26 05:00:00 21.3 21.1 21.7 0 6738 17.2 16.82 17.72 100 17.1 16.8
2017-06-26 06:00:00 21 20.9 21.2 0 6796 16.97 16.66 17.68 100 16.9 16.6
2017-06-26 07:00:00 20.9 20.8 21.1 0 6894 19.31 18.19 20.73 100 19.2 18.1
2017-06-26 08:00:00 21.1 21 21.4 0 6952 20.9 20.22 21.9 98.7 20.6 20.2
2017-06-26 09:00:00 21.4 21.3 21.5 0 7040 20.25 20.02 20.49 100 20.2 20
2017-06-26 10:00:00 21.6 21.5 21.8 0 7070 20.76 20.3 21.42 99.8 20.6 20.3
2017-06-26 11:00:00 21.9 21.7 22.1 0 7088 21.94 20.92 22.71 94.1 20.8 20.4
2017-06-26 12:00:00 22.5 22.2 22.9 0 7098 23.4 22.84 23.96 85.26 20.6 20.3
2017-06-26 13:00:00 23.1 22.9 23.4 0 7098 24.36 23.89 24.8 81.3 20.8 20.5
2017-06-26 14:00:00 23.6 23.4 24.3 0 7098 25.85 24.94 26.51 76.16 21.1 20.6
2017-06-26 15:00:00 24.3 24 24.8 0 7080 23.76 22.34 26.59 83.54 20.6 19.6
2017-06-26 16:00:00 24.2 24.1 24.5 0 7098 22.15 20.79 23.94 96 21.3 20.3
2017-06-26 17:00:00 24.1 24 24.2 0 7088 22.64 21.87 23.43 93.6 21.4 21.1
2017-06-26 18:00:00 23.8 23.2 24.2 7 6816 -19.75 21.69 66.5 13.5 0
2017-06-26 19:00:00 22.2 21.1 23.1 15.2 6766 -11.9 18.71 75 0
2017-06-26 20:00:00 21.1 21.1 21.2 1 6806 16.19 15.7 16.65 100 16.1 15.7
2017-06-26 21:00:00 21.2 21.1 21.4 0 6786 16.48 16.05 16.85 100 16.4 16
2017-06-26 22:00:00 21 20.9 21.3 0 6766 15.55 15.13 15.97 100 15.5 15.1
2017-06-26 23:00:00 20.7 20.6 20.9 0 6756 15.72 15.23 16.16 100 15.6 15.2
2017-06-27 00:00:00 20.4 20.4 20.7 0 6738 15.64 15.34 16.17 100 15.5 15.3
2017-06-27 01:00:00 20.1 20 20.4 0.2 6728 15.33 15.23 15.48 91.66 0
2017-06-27 02:00:00 19.9 19.7 20.1 0 6728 15.26 14.91 15.43 100 15.2 14.9
2017-06-27 03:00:00 19.6 19.5 19.9 0 6718 14.91 14.53 15.29 100 14.8 14.5
2017-06-27 04:00:00 19.3 19.2 19.5 0 6708 14.46 14.23 14.85 100 14.4 14.2
2017-06-27 05:00:00 19.1 19 19.3 0 6718 13.93 13.5 14.49 100 13.8 13.5